sensor_id;sensor_type;location;lat;lon;timestamp;temperature;humidity
11666;DHT22;5889;51.350;6.708;2022-09-09T00:01:58;16.90;99.90
11666;DHT22;5889;51.350;6.708;2022-09-09T00:04:28;16.90;99.90
11666;DHT22;5889;51.350;6.708;2022-09-09T00:07:01;16.90;99.90
11666;DHT22;5889;51.350;6.708;2022-09-09T00:09:35;16.90;99.90
11666;DHT22;5889;51.350;6.708;2022-09-09T00:12:11;16.90;99.90
11666;DHT22;5889;51.350;6.708;2022-09-09T00:14:45;16.90;99.90
11666;DHT22;5889;51.350;6.708;2022-09-09T00:17:19;16.90;99.90
11666;DHT22;5889;51.350;6.708;2022-09-09T00:19:52;16.90;99.90
11666;DHT22;5889;51.350;6.708;2022-09-09T00:22:23;17.00;99.90
11666;DHT22;5889;51.350;6.708;2022-09-09T00:24:53;16.90;99.90
11666;DHT22;5889;51.350;6.708;2022-09-09T00:27:26;16.90;99.90
11666;DHT22;5889;51.350;6.708;2022-09-09T00:30:00;16.90;99.90
11666;DHT22;5889;51.350;6.708;2022-09-09T00:32:30;16.90;99.90
11666;DHT22;5889;51.350;6.708;2022-09-09T00:35:01;16.90;99.90
11666;DHT22;5889;51.350;6.708;2022-09-09T00:37:29;16.90;99.90
11666;DHT22;5889;51.350;6.708;2022-09-09T00:40:02;16.90;99.90
11666;DHT22;5889;51.350;6.708;2022-09-09T00:42:39;16.90;99.90
11666;DHT22;5889;51.350;6.708;2022-09-09T00:45:19;16.90;99.90
11666;DHT22;5889;51.350;6.708;2022-09-09T00:47:53;16.90;99.90
11666;DHT22;5889;51.350;6.708;2022-09-09T00:50:35;16.90;99.90
11666;DHT22;5889;51.350;6.708;2022-09-09T00:53:24;16.90;99.90
11666;DHT22;5889;51.350;6.708;2022-09-09T00:56:07;16.80;99.90
11666;DHT22;5889;51.350;6.708;2022-09-09T00:58:35;16.80;99.90
11666;DHT22;5889;51.350;6.708;2022-09-09T01:01:04;16.80;99.90
11666;DHT22;5889;51.350;6.708;2022-09-09T01:03:35;16.80;99.90
11666;DHT22;5889;51.350;6.708;2022-09-09T01:06:12;16.70;99.90
11666;DHT22;5889;51.350;6.708;2022-09-09T01:09:13;16.70;99.90
11666;DHT22;5889;51.350;6.708;2022-09-09T01:11:52;16.70;99.90
11666;DHT22;5889;51.350;6.708;2022-09-09T01:14:29;16.60;99.90
11666;DHT22;5889;51.350;6.708;2022-09-09T01:17:01;16.60;99.90
11666;DHT22;5889;51.350;6.708;2022-09-09T01:19:40;16.60;99.90
11666;DHT22;5889;51.350;6.708;2022-09-09T01:22:18;16.60;99.90
11666;DHT22;5889;51.350;6.708;2022-09-09T01:25:06;16.60;99.90
11666;DHT22;5889;51.350;6.708;2022-09-09T01:27:40;16.50;99.90
11666;DHT22;5889;51.350;6.708;2022-09-09T01:30:10;16.50;99.90
11666;DHT22;5889;51.350;6.708;2022-09-09T01:32:41;16.50;99.90
11666;DHT22;5889;51.350;6.708;2022-09-09T01:35:11;16.50;99.90
11666;DHT22;5889;51.350;6.708;2022-09-09T01:37:39;16.50;99.90
11666;DHT22;5889;51.350;6.708;2022-09-09T01:40:07;16.50;99.90
11666;DHT22;5889;51.350;6.708;2022-09-09T01:42:33;16.50;99.90
11666;DHT22;5889;51.350;6.708;2022-09-09T01:45:02;16.50;99.90
11666;DHT22;5889;51.350;6.708;2022-09-09T01:47:29;16.50;99.90
11666;DHT22;5889;51.350;6.708;2022-09-09T01:49:56;16.50;99.90
11666;DHT22;5889;51.350;6.708;2022-09-09T01:52:22;16.50;99.90
11666;DHT22;5889;51.350;6.708;2022-09-09T01:54:49;16.50;99.90
11666;DHT22;5889;51.350;6.708;2022-09-09T01:57:21;16.50;99.90
11666;DHT22;5889;51.350;6.708;2022-09-09T01:59:58;16.60;99.90
11666;DHT22;5889;51.350;6.708;2022-09-09T02:02:31;16.60;99.90
11666;DHT22;5889;51.350;6.708;2022-09-09T02:05:07;16.60;99.90
11666;DHT22;5889;51.350;6.708;2022-09-09T02:07:39;16.60;99.90
11666;DHT22;5889;51.350;6.708;2022-09-09T02:10:10;16.60;99.90
11666;DHT22;5889;51.350;6.708;2022-09-09T02:12:41;16.60;99.90
11666;DHT22;5889;51.350;6.708;2022-09-09T02:15:17;16.60;99.90
11666;DHT22;5889;51.350;6.708;2022-09-09T02:17:46;16.70;99.90
11666;DHT22;5889;51.350;6.708;2022-09-09T02:20:14;16.70;99.90
11666;DHT22;5889;51.350;6.708;2022-09-09T02:22:44;16.70;99.90
11666;DHT22;5889;51.350;6.708;2022-09-09T02:25:15;16.70;99.90
11666;DHT22;5889;51.350;6.708;2022-09-09T02:27:45;16.70;99.90
11666;DHT22;5889;51.350;6.708;2022-09-09T02:30:13;16.70;99.90
11666;DHT22;5889;51.350;6.708;2022-09-09T02:32:40;16.70;99.90
11666;DHT22;5889;51.350;6.708;2022-09-09T02:35:13;16.70;99.90
11666;DHT22;5889;51.350;6.708;2022-09-09T02:37:42;16.70;99.90
11666;DHT22;5889;51.350;6.708;2022-09-09T02:40:12;16.70;99.90
11666;DHT22;5889;51.350;6.708;2022-09-09T02:42:41;16.70;99.90
11666;DHT22;5889;51.350;6.708;2022-09-09T02:45:10;16.70;99.90
11666;DHT22;5889;51.350;6.708;2022-09-09T02:47:40;16.70;99.90
11666;DHT22;5889;51.350;6.708;2022-09-09T02:50:13;16.70;99.90
11666;DHT22;5889;51.350;6.708;2022-09-09T02:52:50;16.70;99.90
11666;DHT22;5889;51.350;6.708;2022-09-09T02:55:25;16.70;99.90
11666;DHT22;5889;51.350;6.708;2022-09-09T02:57:56;16.70;99.90
11666;DHT22;5889;51.350;6.708;2022-09-09T03:00:24;16.70;99.90
11666;DHT22;5889;51.350;6.708;2022-09-09T03:02:51;16.70;99.90
11666;DHT22;5889;51.350;6.708;2022-09-09T03:05:20;16.70;99.90
11666;DHT22;5889;51.350;6.708;2022-09-09T03:07:47;16.70;99.90
11666;DHT22;5889;51.350;6.708;2022-09-09T03:10:15;16.70;99.90
11666;DHT22;5889;51.350;6.708;2022-09-09T03:12:42;16.80;99.90
11666;DHT22;5889;51.350;6.708;2022-09-09T03:15:09;16.80;99.90
11666;DHT22;5889;51.350;6.708;2022-09-09T03:17:36;16.80;99.90
11666;DHT22;5889;51.350;6.708;2022-09-09T03:20:03;16.80;99.90
11666;DHT22;5889;51.350;6.708;2022-09-09T03:22:31;16.80;99.90
11666;DHT22;5889;51.350;6.708;2022-09-09T03:24:58;16.80;99.90
11666;DHT22;5889;51.350;6.708;2022-09-09T03:27:25;16.90;99.90
11666;DHT22;5889;51.350;6.708;2022-09-09T03:29:52;16.90;99.90
11666;DHT22;5889;51.350;6.708;2022-09-09T03:32:19;16.90;99.90
11666;DHT22;5889;51.350;6.708;2022-09-09T03:34:47;16.90;99.90
11666;DHT22;5889;51.350;6.708;2022-09-09T03:37:15;16.90;99.90
11666;DHT22;5889;51.350;6.708;2022-09-09T03:39:44;16.90;99.90
11666;DHT22;5889;51.350;6.708;2022-09-09T03:42:12;16.90;99.90
11666;DHT22;5889;51.350;6.708;2022-09-09T03:44:44;16.90;99.90
11666;DHT22;5889;51.350;6.708;2022-09-09T03:47:16;16.80;99.90
11666;DHT22;5889;51.350;6.708;2022-09-09T03:49:43;16.80;99.90
11666;DHT22;5889;51.350;6.708;2022-09-09T03:52:10;16.80;99.90
11666;DHT22;5889;51.350;6.708;2022-09-09T03:54:36;16.80;99.90
11666;DHT22;5889;51.350;6.708;2022-09-09T03:57:05;16.80;99.90
11666;DHT22;5889;51.350;6.708;2022-09-09T03:59:32;16.80;99.90
11666;DHT22;5889;51.350;6.708;2022-09-09T04:02:00;16.70;99.90
11666;DHT22;5889;51.350;6.708;2022-09-09T04:04:27;16.80;99.90
11666;DHT22;5889;51.350;6.708;2022-09-09T04:06:54;16.70;99.90
11666;DHT22;5889;51.350;6.708;2022-09-09T04:09:21;16.70;99.90
11666;DHT22;5889;51.350;6.708;2022-09-09T04:11:48;16.70;99.90
11666;DHT22;5889;51.350;6.708;2022-09-09T04:14:16;16.70;99.90
11666;DHT22;5889;51.350;6.708;2022-09-09T04:16:43;16.70;99.90
11666;DHT22;5889;51.350;6.708;2022-09-09T04:19:10;16.70;99.90
11666;DHT22;5889;51.350;6.708;2022-09-09T04:21:38;16.70;99.90
11666;DHT22;5889;51.350;6.708;2022-09-09T04:24:06;16.70;99.90
11666;DHT22;5889;51.350;6.708;2022-09-09T04:26:33;16.70;99.90
11666;DHT22;5889;51.350;6.708;2022-09-09T04:29:00;16.70;99.90
11666;DHT22;5889;51.350;6.708;2022-09-09T04:31:28;16.70;99.90
11666;DHT22;5889;51.350;6.708;2022-09-09T04:33:55;16.80;99.90
11666;DHT22;5889;51.350;6.708;2022-09-09T04:36:22;16.80;99.90
11666;DHT22;5889;51.350;6.708;2022-09-09T04:38:49;16.80;99.90
11666;DHT22;5889;51.350;6.708;2022-09-09T04:41:16;16.80;99.90
11666;DHT22;5889;51.350;6.708;2022-09-09T04:43:43;16.80;99.90
11666;DHT22;5889;51.350;6.708;2022-09-09T04:46:10;16.80;99.90
11666;DHT22;5889;51.350;6.708;2022-09-09T04:48:38;16.80;99.90
11666;DHT22;5889;51.350;6.708;2022-09-09T04:51:08;16.80;99.90
11666;DHT22;5889;51.350;6.708;2022-09-09T04:53:35;16.80;99.90
11666;DHT22;5889;51.350;6.708;2022-09-09T04:56:04;16.90;99.90
11666;DHT22;5889;51.350;6.708;2022-09-09T04:58:32;16.90;99.90
11666;DHT22;5889;51.350;6.708;2022-09-09T05:01:04;16.80;99.90
11666;DHT22;5889;51.350;6.708;2022-09-09T05:03:31;16.90;99.90
11666;DHT22;5889;51.350;6.708;2022-09-09T05:06:04;16.90;99.90
11666;DHT22;5889;51.350;6.708;2022-09-09T05:08:31;16.90;99.90
11666;DHT22;5889;51.350;6.708;2022-09-09T05:10:58;16.90;99.90
11666;DHT22;5889;51.350;6.708;2022-09-09T05:13:25;16.90;99.90
11666;DHT22;5889;51.350;6.708;2022-09-09T05:15:53;16.90;99.90
11666;DHT22;5889;51.350;6.708;2022-09-09T05:18:19;16.90;99.90
11666;DHT22;5889;51.350;6.708;2022-09-09T05:20:47;16.90;99.90
11666;DHT22;5889;51.350;6.708;2022-09-09T05:23:15;16.90;99.90
11666;DHT22;5889;51.350;6.708;2022-09-09T05:25:42;16.90;99.90
11666;DHT22;5889;51.350;6.708;2022-09-09T05:28:09;17.00;99.90
11666;DHT22;5889;51.350;6.708;2022-09-09T05:30:37;17.00;99.90
11666;DHT22;5889;51.350;6.708;2022-09-09T05:33:03;17.00;99.90
11666;DHT22;5889;51.350;6.708;2022-09-09T05:35:31;17.00;99.90
11666;DHT22;5889;51.350;6.708;2022-09-09T05:37:59;17.00;99.90
11666;DHT22;5889;51.350;6.708;2022-09-09T05:40:28;17.00;99.90
11666;DHT22;5889;51.350;6.708;2022-09-09T05:42:59;17.10;99.90
11666;DHT22;5889;51.350;6.708;2022-09-09T05:45:27;17.10;99.90
11666;DHT22;5889;51.350;6.708;2022-09-09T05:47:53;17.10;99.90
11666;DHT22;5889;51.350;6.708;2022-09-09T05:50:20;17.20;99.90
11666;DHT22;5889;51.350;6.708;2022-09-09T05:52:47;17.20;99.90
11666;DHT22;5889;51.350;6.708;2022-09-09T05:55:15;17.20;99.90
11666;DHT22;5889;51.350;6.708;2022-09-09T05:57:48;17.20;99.90
11666;DHT22;5889;51.350;6.708;2022-09-09T06:00:15;17.20;99.90
11666;DHT22;5889;51.350;6.708;2022-09-09T06:03:02;17.30;99.90
11666;DHT22;5889;51.350;6.708;2022-09-09T06:05:30;17.30;99.90
11666;DHT22;5889;51.350;6.708;2022-09-09T06:07:57;17.30;99.90
11666;DHT22;5889;51.350;6.708;2022-09-09T06:10:24;17.40;99.90
11666;DHT22;5889;51.350;6.708;2022-09-09T06:12:53;17.40;99.90
11666;DHT22;5889;51.350;6.708;2022-09-09T06:15:20;17.50;99.90
11666;DHT22;5889;51.350;6.708;2022-09-09T06:17:47;17.40;99.90
11666;DHT22;5889;51.350;6.708;2022-09-09T06:20:20;17.50;99.90
11666;DHT22;5889;51.350;6.708;2022-09-09T06:22:47;17.50;99.90
11666;DHT22;5889;51.350;6.708;2022-09-09T06:25:14;17.60;99.90
11666;DHT22;5889;51.350;6.708;2022-09-09T06:27:41;17.60;99.90
11666;DHT22;5889;51.350;6.708;2022-09-09T06:30:10;17.70;99.90
11666;DHT22;5889;51.350;6.708;2022-09-09T06:32:37;17.70;99.90
11666;DHT22;5889;51.350;6.708;2022-09-09T06:35:05;17.80;99.90
11666;DHT22;5889;51.350;6.708;2022-09-09T06:37:33;17.80;99.90
11666;DHT22;5889;51.350;6.708;2022-09-09T06:39:59;17.90;99.90
11666;DHT22;5889;51.350;6.708;2022-09-09T06:42:26;18.00;99.90
11666;DHT22;5889;51.350;6.708;2022-09-09T06:44:53;18.00;99.90
11666;DHT22;5889;51.350;6.708;2022-09-09T06:47:21;18.00;99.90
11666;DHT22;5889;51.350;6.708;2022-09-09T06:49:48;18.10;99.90
11666;DHT22;5889;51.350;6.708;2022-09-09T06:52:15;18.20;99.90
11666;DHT22;5889;51.350;6.708;2022-09-09T06:54:43;18.30;99.90
11666;DHT22;5889;51.350;6.708;2022-09-09T06:57:10;18.30;99.90
11666;DHT22;5889;51.350;6.708;2022-09-09T06:59:37;18.40;99.90
11666;DHT22;5889;51.350;6.708;2022-09-09T07:02:04;18.50;99.90
11666;DHT22;5889;51.350;6.708;2022-09-09T07:04:32;18.40;99.90
11666;DHT22;5889;51.350;6.708;2022-09-09T07:06:59;18.40;99.90
11666;DHT22;5889;51.350;6.708;2022-09-09T07:09:26;18.50;99.90
11666;DHT22;5889;51.350;6.708;2022-09-09T07:11:55;18.50;99.90
11666;DHT22;5889;51.350;6.708;2022-09-09T07:14:22;18.50;99.90
11666;DHT22;5889;51.350;6.708;2022-09-09T07:16:49;18.50;99.90
11666;DHT22;5889;51.350;6.708;2022-09-09T07:19:16;18.50;99.90
11666;DHT22;5889;51.350;6.708;2022-09-09T07:21:44;18.50;99.90
11666;DHT22;5889;51.350;6.708;2022-09-09T07:24:11;18.50;99.90
11666;DHT22;5889;51.350;6.708;2022-09-09T07:26:39;18.50;99.90
11666;DHT22;5889;51.350;6.708;2022-09-09T07:29:06;18.50;99.90
11666;DHT22;5889;51.350;6.708;2022-09-09T07:31:35;18.50;99.90
11666;DHT22;5889;51.350;6.708;2022-09-09T07:34:03;18.50;99.90
11666;DHT22;5889;51.350;6.708;2022-09-09T07:36:32;18.50;99.90
11666;DHT22;5889;51.350;6.708;2022-09-09T07:39:03;18.50;99.90
11666;DHT22;5889;51.350;6.708;2022-09-09T07:41:32;18.50;99.90
11666;DHT22;5889;51.350;6.708;2022-09-09T07:44:03;18.60;99.90
11666;DHT22;5889;51.350;6.708;2022-09-09T07:46:30;18.50;99.90
11666;DHT22;5889;51.350;6.708;2022-09-09T07:48:57;18.50;99.90
11666;DHT22;5889;51.350;6.708;2022-09-09T07:51:26;18.50;99.90
11666;DHT22;5889;51.350;6.708;2022-09-09T07:53:55;18.50;99.90
11666;DHT22;5889;51.350;6.708;2022-09-09T07:56:25;18.50;99.90
11666;DHT22;5889;51.350;6.708;2022-09-09T07:58:54;18.60;99.90
11666;DHT22;5889;51.350;6.708;2022-09-09T08:01:23;18.80;99.90
11666;DHT22;5889;51.350;6.708;2022-09-09T08:03:54;18.90;99.90
11666;DHT22;5889;51.350;6.708;2022-09-09T08:06:21;19.00;99.90
11666;DHT22;5889;51.350;6.708;2022-09-09T08:08:51;19.10;99.90
11666;DHT22;5889;51.350;6.708;2022-09-09T08:11:18;19.20;99.90
11666;DHT22;5889;51.350;6.708;2022-09-09T08:13:46;19.30;99.90
11666;DHT22;5889;51.350;6.708;2022-09-09T08:16:15;19.30;99.90
11666;DHT22;5889;51.350;6.708;2022-09-09T08:18:43;19.40;99.90
11666;DHT22;5889;51.350;6.708;2022-09-09T08:21:12;19.50;99.90
11666;DHT22;5889;51.350;6.708;2022-09-09T08:23:41;19.50;99.90
11666;DHT22;5889;51.350;6.708;2022-09-09T08:26:11;19.50;99.90
11666;DHT22;5889;51.350;6.708;2022-09-09T08:28:49;19.60;99.90
11666;DHT22;5889;51.350;6.708;2022-09-09T08:31:19;19.70;99.90
11666;DHT22;5889;51.350;6.708;2022-09-09T08:33:50;19.80;99.90
11666;DHT22;5889;51.350;6.708;2022-09-09T08:36:40;19.90;99.90
11666;DHT22;5889;51.350;6.708;2022-09-09T08:39:25;20.00;99.90
11666;DHT22;5889;51.350;6.708;2022-09-09T08:42:31;20.20;99.90
11666;DHT22;5889;51.350;6.708;2022-09-09T08:48:16;20.60;99.60
11666;DHT22;5889;51.350;6.708;2022-09-09T08:50:45;20.70;99.00
11666;DHT22;5889;51.350;6.708;2022-09-09T08:53:18;20.70;98.60
11666;DHT22;5889;51.350;6.708;2022-09-09T08:55:48;20.70;98.80
11666;DHT22;5889;51.350;6.708;2022-09-09T08:58:18;20.70;98.90
11666;DHT22;5889;51.350;6.708;2022-09-09T09:01:02;20.60;98.40
11666;DHT22;5889;51.350;6.708;2022-09-09T09:03:43;20.50;98.80
11666;DHT22;5889;51.350;6.708;2022-09-09T09:06:26;20.50;98.90
11666;DHT22;5889;51.350;6.708;2022-09-09T09:09:01;20.50;98.70
11666;DHT22;5889;51.350;6.708;2022-09-09T09:11:35;20.60;99.00
11666;DHT22;5889;51.350;6.708;2022-09-09T09:14:07;20.50;98.10
11666;DHT22;5889;51.350;6.708;2022-09-09T09:16:43;20.60;98.60
11666;DHT22;5889;51.350;6.708;2022-09-09T09:19:15;20.70;98.40
11666;DHT22;5889;51.350;6.708;2022-09-09T09:21:44;20.80;98.00
11666;DHT22;5889;51.350;6.708;2022-09-09T09:24:18;20.70;97.80
11666;DHT22;5889;51.350;6.708;2022-09-09T09:26:45;20.60;97.60
11666;DHT22;5889;51.350;6.708;2022-09-09T09:29:14;20.50;97.90
11666;DHT22;5889;51.350;6.708;2022-09-09T09:31:43;20.40;97.80
11666;DHT22;5889;51.350;6.708;2022-09-09T09:34:14;20.40;98.20
11666;DHT22;5889;51.350;6.708;2022-09-09T09:36:45;20.50;98.30
11666;DHT22;5889;51.350;6.708;2022-09-09T09:39:23;20.60;97.90
11666;DHT22;5889;51.350;6.708;2022-09-09T09:41:51;20.70;98.00
11666;DHT22;5889;51.350;6.708;2022-09-09T09:44:26;20.70;97.70
11666;DHT22;5889;51.350;6.708;2022-09-09T09:47:05;20.70;97.60
11666;DHT22;5889;51.350;6.708;2022-09-09T09:49:34;20.90;97.90
11666;DHT22;5889;51.350;6.708;2022-09-09T09:52:01;21.00;97.40
11666;DHT22;5889;51.350;6.708;2022-09-09T09:54:30;21.10;97.10
11666;DHT22;5889;51.350;6.708;2022-09-09T09:57:08;21.40;96.70
11666;DHT22;5889;51.350;6.708;2022-09-09T09:59:36;21.70;96.10
11666;DHT22;5889;51.350;6.708;2022-09-09T10:02:20;21.90;95.60
11666;DHT22;5889;51.350;6.708;2022-09-09T10:05:01;22.10;94.70
11666;DHT22;5889;51.350;6.708;2022-09-09T10:07:28;22.20;94.40
11666;DHT22;5889;51.350;6.708;2022-09-09T10:09:57;22.30;93.80
11666;DHT22;5889;51.350;6.708;2022-09-09T10:12:34;22.30;94.00
11666;DHT22;5889;51.350;6.708;2022-09-09T10:15:10;22.30;93.20
11666;DHT22;5889;51.350;6.708;2022-09-09T10:17:45;22.20;93.70
11666;DHT22;5889;51.350;6.708;2022-09-09T10:20:27;22.20;93.60
11666;DHT22;5889;51.350;6.708;2022-09-09T10:23:04;22.20;93.50
11666;DHT22;5889;51.350;6.708;2022-09-09T10:25:42;22.10;93.50
11666;DHT22;5889;51.350;6.708;2022-09-09T10:28:36;21.90;93.30
11666;DHT22;5889;51.350;6.708;2022-09-09T10:31:15;21.60;93.10
11666;DHT22;5889;51.350;6.708;2022-09-09T10:33:50;21.40;93.60
11666;DHT22;5889;51.350;6.708;2022-09-09T10:36:21;21.20;94.50
11666;DHT22;5889;51.350;6.708;2022-09-09T10:38:53;21.10;94.60
11666;DHT22;5889;51.350;6.708;2022-09-09T10:41:36;21.00;94.70
11666;DHT22;5889;51.350;6.708;2022-09-09T10:44:22;21.00;95.00
11666;DHT22;5889;51.350;6.708;2022-09-09T10:47:15;21.10;94.80
11666;DHT22;5889;51.350;6.708;2022-09-09T10:50:02;21.10;95.00
11666;DHT22;5889;51.350;6.708;2022-09-09T10:52:38;21.30;95.00
11666;DHT22;5889;51.350;6.708;2022-09-09T10:55:10;21.50;94.60
11666;DHT22;5889;51.350;6.708;2022-09-09T10:57:40;21.70;93.80
11666;DHT22;5889;51.350;6.708;2022-09-09T11:00:16;21.80;93.50
11666;DHT22;5889;51.350;6.708;2022-09-09T11:02:43;21.80;93.50
11666;DHT22;5889;51.350;6.708;2022-09-09T11:05:16;21.70;93.30
11666;DHT22;5889;51.350;6.708;2022-09-09T11:07:49;21.60;93.80
11666;DHT22;5889;51.350;6.708;2022-09-09T11:10:23;21.60;94.30
11666;DHT22;5889;51.350;6.708;2022-09-09T11:12:56;21.50;94.40
11666;DHT22;5889;51.350;6.708;2022-09-09T11:15:29;21.50;94.70
11666;DHT22;5889;51.350;6.708;2022-09-09T11:18:01;21.50;94.20
11666;DHT22;5889;51.350;6.708;2022-09-09T11:20:31;21.50;93.90
11666;DHT22;5889;51.350;6.708;2022-09-09T11:23:02;21.50;93.70
11666;DHT22;5889;51.350;6.708;2022-09-09T11:25:32;21.40;93.40
11666;DHT22;5889;51.350;6.708;2022-09-09T11:28:17;21.50;93.70
11666;DHT22;5889;51.350;6.708;2022-09-09T11:30:55;21.70;93.40
11666;DHT22;5889;51.350;6.708;2022-09-09T11:33:54;21.90;93.10
11666;DHT22;5889;51.350;6.708;2022-09-09T11:36:35;21.90;93.10
11666;DHT22;5889;51.350;6.708;2022-09-09T11:39:36;21.80;93.40
11666;DHT22;5889;51.350;6.708;2022-09-09T11:42:16;21.90;93.30
11666;DHT22;5889;51.350;6.708;2022-09-09T11:44:44;21.80;93.20
11666;DHT22;5889;51.350;6.708;2022-09-09T11:47:20;21.90;93.40
11666;DHT22;5889;51.350;6.708;2022-09-09T11:49:49;22.00;92.90
11666;DHT22;5889;51.350;6.708;2022-09-09T11:52:22;22.10;92.80
11666;DHT22;5889;51.350;6.708;2022-09-09T11:54:55;22.10;92.50
11666;DHT22;5889;51.350;6.708;2022-09-09T11:57:25;22.20;93.10
11666;DHT22;5889;51.350;6.708;2022-09-09T11:59:54;22.20;92.90
11666;DHT22;5889;51.350;6.708;2022-09-09T12:02:24;22.10;93.40
11666;DHT22;5889;51.350;6.708;2022-09-09T12:04:57;22.00;92.80
11666;DHT22;5889;51.350;6.708;2022-09-09T12:07:31;21.80;93.60
11666;DHT22;5889;51.350;6.708;2022-09-09T12:10:04;21.80;93.40
11666;DHT22;5889;51.350;6.708;2022-09-09T12:12:34;21.60;93.50
11666;DHT22;5889;51.350;6.708;2022-09-09T12:15:24;21.70;93.80
11666;DHT22;5889;51.350;6.708;2022-09-09T12:17:55;21.90;93.70
11666;DHT22;5889;51.350;6.708;2022-09-09T12:20:26;22.10;93.30
11666;DHT22;5889;51.350;6.708;2022-09-09T12:23:14;22.10;93.70
11666;DHT22;5889;51.350;6.708;2022-09-09T12:25:57;22.10;93.30
11666;DHT22;5889;51.350;6.708;2022-09-09T12:28:31;22.00;93.60
11666;DHT22;5889;51.350;6.708;2022-09-09T12:31:05;21.90;93.70
11666;DHT22;5889;51.350;6.708;2022-09-09T12:33:34;21.50;95.70
11666;DHT22;5889;51.350;6.708;2022-09-09T12:36:03;20.90;98.60
11666;DHT22;5889;51.350;6.708;2022-09-09T12:38:34;20.50;99.90
11666;DHT22;5889;51.350;6.708;2022-09-09T12:41:03;20.20;99.90
11666;DHT22;5889;51.350;6.708;2022-09-09T12:43:30;19.90;99.90
11666;DHT22;5889;51.350;6.708;2022-09-09T12:45:59;19.70;99.90
11666;DHT22;5889;51.350;6.708;2022-09-09T12:48:31;19.50;99.90
11666;DHT22;5889;51.350;6.708;2022-09-09T12:50:59;19.40;99.90
11666;DHT22;5889;51.350;6.708;2022-09-09T12:53:30;19.20;99.90
11666;DHT22;5889;51.350;6.708;2022-09-09T12:55:59;18.90;99.90
11666;DHT22;5889;51.350;6.708;2022-09-09T12:58:27;18.70;99.90
11666;DHT22;5889;51.350;6.708;2022-09-09T13:00:58;18.60;99.90
11666;DHT22;5889;51.350;6.708;2022-09-09T13:03:26;18.70;99.90
11666;DHT22;5889;51.350;6.708;2022-09-09T13:05:57;18.80;99.90
11666;DHT22;5889;51.350;6.708;2022-09-09T13:08:26;18.90;99.90
11666;DHT22;5889;51.350;6.708;2022-09-09T13:10:56;18.90;99.90
11666;DHT22;5889;51.350;6.708;2022-09-09T13:13:28;18.90;99.90
11666;DHT22;5889;51.350;6.708;2022-09-09T13:15:58;18.90;99.90
11666;DHT22;5889;51.350;6.708;2022-09-09T13:18:28;19.10;99.90
11666;DHT22;5889;51.350;6.708;2022-09-09T13:20:56;19.50;99.90
11666;DHT22;5889;51.350;6.708;2022-09-09T13:23:27;19.60;99.90
11666;DHT22;5889;51.350;6.708;2022-09-09T13:25:56;19.70;99.90
11666;DHT22;5889;51.350;6.708;2022-09-09T13:28:25;19.70;99.90
11666;DHT22;5889;51.350;6.708;2022-09-09T13:30:58;19.80;99.90
11666;DHT22;5889;51.350;6.708;2022-09-09T13:33:33;20.00;99.90
11666;DHT22;5889;51.350;6.708;2022-09-09T13:36:04;20.20;99.90
11666;DHT22;5889;51.350;6.708;2022-09-09T13:38:33;20.30;99.90
11666;DHT22;5889;51.350;6.708;2022-09-09T13:41:04;20.30;99.90
11666;DHT22;5889;51.350;6.708;2022-09-09T13:43:33;20.40;99.90
11666;DHT22;5889;51.350;6.708;2022-09-09T13:46:05;20.50;99.90
11666;DHT22;5889;51.350;6.708;2022-09-09T13:48:32;20.40;99.90
11666;DHT22;5889;51.350;6.708;2022-09-09T13:51:02;20.50;99.90
11666;DHT22;5889;51.350;6.708;2022-09-09T13:53:30;20.50;99.90
11666;DHT22;5889;51.350;6.708;2022-09-09T13:55:58;20.70;99.90
11666;DHT22;5889;51.350;6.708;2022-09-09T13:58:25;20.80;99.90
11666;DHT22;5889;51.350;6.708;2022-09-09T14:00:52;20.80;99.90
11666;DHT22;5889;51.350;6.708;2022-09-09T14:03:21;20.70;99.90
11666;DHT22;5889;51.350;6.708;2022-09-09T14:05:48;20.80;99.90
11666;DHT22;5889;51.350;6.708;2022-09-09T14:08:21;21.00;99.90
11666;DHT22;5889;51.350;6.708;2022-09-09T14:10:49;21.20;99.90
11666;DHT22;5889;51.350;6.708;2022-09-09T14:13:15;21.20;99.90
11666;DHT22;5889;51.350;6.708;2022-09-09T14:15:42;21.20;99.90
11666;DHT22;5889;51.350;6.708;2022-09-09T14:18:11;21.20;99.90
11666;DHT22;5889;51.350;6.708;2022-09-09T14:20:40;21.30;99.90
11666;DHT22;5889;51.350;6.708;2022-09-09T14:23:10;21.40;99.90
11666;DHT22;5889;51.350;6.708;2022-09-09T14:25:40;21.30;99.90
11666;DHT22;5889;51.350;6.708;2022-09-09T14:28:09;21.20;99.90
11666;DHT22;5889;51.350;6.708;2022-09-09T14:30:37;20.90;99.90
11666;DHT22;5889;51.350;6.708;2022-09-09T14:33:04;20.70;99.90
11666;DHT22;5889;51.350;6.708;2022-09-09T14:35:30;20.10;99.90
11666;DHT22;5889;51.350;6.708;2022-09-09T14:38:00;19.50;99.90
11666;DHT22;5889;51.350;6.708;2022-09-09T14:40:27;19.00;99.90
11666;DHT22;5889;51.350;6.708;2022-09-09T14:42:54;18.70;99.90
11666;DHT22;5889;51.350;6.708;2022-09-09T14:45:21;18.50;99.90
11666;DHT22;5889;51.350;6.708;2022-09-09T14:47:50;18.30;99.90
11666;DHT22;5889;51.350;6.708;2022-09-09T14:50:17;18.30;99.90
11666;DHT22;5889;51.350;6.708;2022-09-09T14:52:44;18.20;99.90
11666;DHT22;5889;51.350;6.708;2022-09-09T14:55:12;18.10;99.90
11666;DHT22;5889;51.350;6.708;2022-09-09T14:57:39;18.00;99.90
11666;DHT22;5889;51.350;6.708;2022-09-09T15:00:07;17.90;99.90
11666;DHT22;5889;51.350;6.708;2022-09-09T15:02:34;17.90;99.90
11666;DHT22;5889;51.350;6.708;2022-09-09T15:05:02;17.90;99.90
11666;DHT22;5889;51.350;6.708;2022-09-09T15:07:29;17.90;99.90
11666;DHT22;5889;51.350;6.708;2022-09-09T15:09:57;17.90;99.90
11666;DHT22;5889;51.350;6.708;2022-09-09T15:12:25;17.90;99.90
11666;DHT22;5889;51.350;6.708;2022-09-09T15:14:53;18.00;99.90
11666;DHT22;5889;51.350;6.708;2022-09-09T15:17:21;18.00;99.90
11666;DHT22;5889;51.350;6.708;2022-09-09T15:19:49;18.10;99.90
11666;DHT22;5889;51.350;6.708;2022-09-09T15:22:16;18.30;99.90
11666;DHT22;5889;51.350;6.708;2022-09-09T15:24:44;18.40;99.90
11666;DHT22;5889;51.350;6.708;2022-09-09T15:27:11;18.60;99.90
11666;DHT22;5889;51.350;6.708;2022-09-09T15:29:41;18.70;99.90
11666;DHT22;5889;51.350;6.708;2022-09-09T15:32:09;18.90;99.90
11666;DHT22;5889;51.350;6.708;2022-09-09T15:34:36;19.00;99.90
11666;DHT22;5889;51.350;6.708;2022-09-09T15:37:03;19.20;99.90
11666;DHT22;5889;51.350;6.708;2022-09-09T15:39:31;19.40;99.90
11666;DHT22;5889;51.350;6.708;2022-09-09T15:41:59;19.50;99.90
11666;DHT22;5889;51.350;6.708;2022-09-09T15:44:27;19.60;99.90
11666;DHT22;5889;51.350;6.708;2022-09-09T15:46:55;19.80;99.90
11666;DHT22;5889;51.350;6.708;2022-09-09T15:49:23;19.90;99.90
11666;DHT22;5889;51.350;6.708;2022-09-09T15:51:52;20.00;99.90
11666;DHT22;5889;51.350;6.708;2022-09-09T15:54:20;20.00;99.90
11666;DHT22;5889;51.350;6.708;2022-09-09T15:56:51;20.10;99.90
11666;DHT22;5889;51.350;6.708;2022-09-09T15:59:18;20.10;99.90
11666;DHT22;5889;51.350;6.708;2022-09-09T16:01:44;20.00;99.90
11666;DHT22;5889;51.350;6.708;2022-09-09T16:04:13;20.10;99.90
11666;DHT22;5889;51.350;6.708;2022-09-09T16:06:41;20.10;99.90
11666;DHT22;5889;51.350;6.708;2022-09-09T16:09:08;20.10;99.90
11666;DHT22;5889;51.350;6.708;2022-09-09T16:11:36;20.00;99.90